Time;durP1;ratioP1;P1;durP2;ratioP2;P2;SDS_P1;SDS_P2;PMS_P1;PMS_P2;Temp;Humidity;BMP_temperature;BMP_pressure;BME280_temperature;BME280_humidity;BME280_pressure;Samples;Min_cycle;Max_cycle;Signal;HPM_P1;HPM_P2
2022/04/09 00:00:24;;;;;;;9.80;2.75;;;;;;;;;;5055729;28;20094;-29
2022/04/09 00:02:51;;;;;;;7.00;2.58;;;;;;;;;;5066399;28;20044;-31
2022/04/09 00:05:17;;;;;;;7.32;2.50;;;;;;;;;;5061485;28;20132;-31
2022/04/09 00:07:43;;;;;;;9.85;2.67;;;;;;;;;;5064049;28;20051;-31
2022/04/09 00:10:10;;;;;;;8.73;2.47;;;;;;;;;;5070689;28;20442;-31
2022/04/09 00:12:37;;;;;;;6.25;3.03;;;;;;;;;;5062013;28;20521;-30
2022/04/09 00:15:04;;;;;;;11.45;2.83;;;;;;;;;;5073676;28;20033;-32
2022/04/09 00:17:36;;;;;;;8.98;2.85;;;;;;;;;;5073164;28;20187;-33
2022/04/09 00:20:02;;;;;;;9.13;2.90;;;;;;;;;;5072571;28;20398;-32
2022/04/09 00:22:28;;;;;;;11.38;2.88;;;;;;;;;;5066712;28;20116;-30
2022/04/09 00:24:55;;;;;;;13.45;3.08;;;;;;;;;;5053949;28;20045;-31
2022/04/09 00:27:21;;;;;;;7.55;2.72;;;;;;;;;;5057027;28;20048;-32
2022/04/09 00:29:47;;;;;;;11.73;3.30;;;;;;;;;;5073558;28;20067;-30
2022/04/09 00:32:13;;;;;;;14.45;3.17;;;;;;;;;;5074327;28;20037;-30
2022/04/09 00:34:40;;;;;;;11.68;3.45;;;;;;;;;;5071931;28;20032;-32
2022/04/09 00:37:06;;;;;;;12.07;3.83;;;;;;;;;;5069877;28;20479;-31
2022/04/09 00:39:32;;;;;;;13.20;3.08;;;;;;;;;;5073862;28;20036;-32
2022/04/09 00:41:58;;;;;;;13.20;2.88;;;;;;;;;;5061996;28;20040;-30
2022/04/09 00:44:24;;;;;;;10.90;3.28;;;;;;;;;;5054245;28;20274;-29
2022/04/09 00:46:50;;;;;;;11.13;2.97;;;;;;;;;;5054203;28;20564;-30
2022/04/09 00:49:17;;;;;;;8.77;2.65;;;;;;;;;;5052625;28;20040;-29
2022/04/09 00:51:44;;;;;;;7.70;2.75;;;;;;;;;;5053624;28;20044;-29
2022/04/09 00:54:14;;;;;;;9.80;2.33;;;;;;;;;;5054233;28;20282;-29
2022/04/09 00:56:41;;;;;;;13.38;2.67;;;;;;;;;;5053543;28;20056;-29
2022/04/09 00:59:10;;;;;;;9.48;2.17;;;;;;;;;;5053723;28;20055;-29
2022/04/09 01:01:37;;;;;;;10.15;2.58;;;;;;;;;;5052350;28;20041;-30
2022/04/09 01:04:06;;;;;;;9.93;2.83;;;;;;;;;;5053959;28;20446;-29
2022/04/09 01:06:33;;;;;;;9.77;3.38;;;;;;;;;;5052519;28;20045;-30
2022/04/09 01:08:59;;;;;;;11.13;4.00;;;;;;;;;;5053574;28;20118;-29
2022/04/09 01:11:25;;;;;;;10.75;3.40;;;;;;;;;;5053433;28;20422;-31
2022/04/09 01:13:51;;;;;;;7.43;2.95;;;;;;;;;;5053015;28;20055;-30
2022/04/09 01:16:18;;;;;;;11.93;2.63;;;;;;;;;;5053430;28;20437;-30
2022/04/09 01:18:44;;;;;;;8.90;2.67;;;;;;;;;;5053271;28;20040;-29
2022/04/09 01:21:11;;;;;;;8.05;2.70;;;;;;;;;;5052885;28;20045;-29
2022/04/09 01:23:37;;;;;;;7.82;2.47;;;;;;;;;;5052930;28;20041;-29
2022/04/09 01:26:04;;;;;;;8.60;3.22;;;;;;;;;;5051495;28;20037;-30
2022/04/09 01:28:31;;;;;;;12.07;3.90;;;;;;;;;;5053367;28;20037;-29
2022/04/09 01:30:57;;;;;;;8.60;2.47;;;;;;;;;;5052961;28;20047;-30
2022/04/09 01:33:23;;;;;;;10.80;2.72;;;;;;;;;;5052994;28;20191;-29
2022/04/09 01:35:49;;;;;;;7.72;3.33;;;;;;;;;;5052473;28;20037;-30
2022/04/09 01:38:15;;;;;;;11.23;2.55;;;;;;;;;;5052258;28;20120;-28
2022/04/09 01:40:41;;;;;;;8.95;3.80;;;;;;;;;;5050684;28;20119;-28
2022/04/09 01:43:08;;;;;;;7.90;2.95;;;;;;;;;;5052459;28;20041;-30
2022/04/09 01:45:35;;;;;;;11.73;4.65;;;;;;;;;;5051816;28;20425;-30
2022/04/09 01:48:01;;;;;;;13.23;4.50;;;;;;;;;;5052499;28;20051;-30
2022/04/09 01:50:27;;;;;;;14.25;4.65;;;;;;;;;;5052590;28;20076;-29
2022/04/09 01:52:54;;;;;;;17.50;5.55;;;;;;;;;;5052355;28;20041;-29
2022/04/09 01:55:20;;;;;;;11.57;3.90;;;;;;;;;;5052289;28;20041;-29
2022/04/09 01:57:47;;;;;;;11.25;3.97;;;;;;;;;;5052479;28;20037;-29
2022/04/09 02:00:13;;;;;;;12.25;3.33;;;;;;;;;;5052345;28;20089;-30
2022/04/09 02:02:40;;;;;;;9.75;3.30;;;;;;;;;;5052444;28;20048;-28
2022/04/09 02:05:06;;;;;;;10.15;3.00;;;;;;;;;;5052375;28;20041;-28
2022/04/09 02:07:32;;;;;;;6.68;3.25;;;;;;;;;;5052518;28;20091;-29
2022/04/09 02:09:58;;;;;;;11.82;3.45;;;;;;;;;;5052189;28;20048;-29
2022/04/09 02:12:24;;;;;;;7.28;2.83;;;;;;;;;;5052062;28;20045;-28
2022/04/09 02:14:50;;;;;;;6.25;2.67;;;;;;;;;;5051986;28;20045;-29
2022/04/09 02:17:16;;;;;;;7.50;3.03;;;;;;;;;;5051738;28;20124;-29
2022/04/09 02:19:42;;;;;;;7.25;2.67;;;;;;;;;;5052092;28;20506;-30
2022/04/09 02:22:08;;;;;;;10.05;2.70;;;;;;;;;;5051648;28;20033;-29
2022/04/09 02:24:35;;;;;;;9.48;3.10;;;;;;;;;;5052116;28;20544;-29
2022/04/09 02:27:01;;;;;;;10.90;2.97;;;;;;;;;;5051906;28;20406;-29
2022/04/09 02:29:27;;;;;;;9.25;2.70;;;;;;;;;;5051778;28;20068;-30
2022/04/09 02:31:53;;;;;;;8.85;3.05;;;;;;;;;;5051905;28;20047;-29
2022/04/09 02:34:19;;;;;;;6.50;2.38;;;;;;;;;;5051743;28;20044;-29
2022/04/09 02:36:45;;;;;;;12.38;2.58;;;;;;;;;;5051831;28;20434;-28
2022/04/09 02:39:12;;;;;;;9.25;2.70;;;;;;;;;;5051141;28;20048;-29
2022/04/09 02:41:38;;;;;;;10.40;2.85;;;;;;;;;;5051864;28;20457;-29
2022/04/09 02:44:04;;;;;;;8.43;2.60;;;;;;;;;;5051684;28;20052;-28
2022/04/09 02:46:30;;;;;;;5.55;2.35;;;;;;;;;;5051703;28;20048;-28
2022/04/09 02:48:56;;;;;;;7.70;2.40;;;;;;;;;;5051575;28;20043;-28
2022/04/09 02:51:22;;;;;;;3.95;1.80;;;;;;;;;;5051376;28;20041;-28
2022/04/09 02:53:48;;;;;;;8.85;2.83;;;;;;;;;;5051489;28;20065;-29
2022/04/09 02:56:14;;;;;;;6.45;2.28;;;;;;;;;;5051484;28;20037;-30
2022/04/09 02:58:40;;;;;;;7.07;2.05;;;;;;;;;;5051105;28;20502;-29
2022/04/09 03:01:06;;;;;;;4.65;1.75;;;;;;;;;;5051377;28;20077;-29
2022/04/09 03:03:32;;;;;;;6.60;1.70;;;;;;;;;;5049971;28;20064;-28
2022/04/09 03:05:58;;;;;;;6.05;2.22;;;;;;;;;;5051313;28;20124;-28
2022/04/09 03:08:24;;;;;;;5.20;2.00;;;;;;;;;;5051229;28;20045;-28
2022/04/09 03:10:51;;;;;;;5.35;1.77;;;;;;;;;;5049726;28;20131;-29
2022/04/09 03:13:17;;;;;;;11.85;1.75;;;;;;;;;;5051390;28;20083;-28
2022/04/09 03:15:43;;;;;;;4.72;1.73;;;;;;;;;;5049961;28;20052;-30
2022/04/09 03:18:10;;;;;;;8.20;2.25;;;;;;;;;;5052127;28;20041;-29
2022/04/09 03:20:37;;;;;;;9.02;2.15;;;;;;;;;;5052648;28;20052;-29
2022/04/09 03:23:03;;;;;;;8.80;1.92;;;;;;;;;;5051478;28;20076;-28
2022/04/09 03:25:29;;;;;;;3.92;1.33;;;;;;;;;;5051282;28;20043;-29
2022/04/09 03:27:55;;;;;;;7.65;1.90;;;;;;;;;;5050867;28;20135;-29
2022/04/09 03:30:21;;;;;;;8.57;2.10;;;;;;;;;;5052006;28;20041;-28
2022/04/09 03:32:47;;;;;;;6.78;2.13;;;;;;;;;;5054984;28;20041;-29
2022/04/09 03:35:14;;;;;;;4.53;1.83;;;;;;;;;;5054843;28;20090;-30
2022/04/09 03:37:40;;;;;;;5.20;1.70;;;;;;;;;;5053681;28;20041;-28
2022/04/09 03:40:07;;;;;;;9.13;1.80;;;;;;;;;;5055217;28;20052;-29
2022/04/09 03:42:33;;;;;;;7.40;2.10;;;;;;;;;;5054733;28;20049;-29
2022/04/09 03:45:00;;;;;;;6.78;1.70;;;;;;;;;;5054624;28;20127;-29
2022/04/09 03:47:26;;;;;;;8.00;1.70;;;;;;;;;;5054967;28;20076;-29
2022/04/09 03:49:52;;;;;;;8.50;1.67;;;;;;;;;;5054918;28;20044;-28
2022/04/09 03:52:18;;;;;;;5.50;1.70;;;;;;;;;;5054751;28;20116;-30
2022/04/09 03:54:44;;;;;;;2.90;1.42;;;;;;;;;;5053901;28;20040;-30
2022/04/09 03:57:10;;;;;;;5.40;2.13;;;;;;;;;;5054956;28;20040;-29
2022/04/09 03:59:36;;;;;;;4.25;1.42;;;;;;;;;;5053866;28;20044;-29
2022/04/09 04:02:02;;;;;;;3.83;1.30;;;;;;;;;;5054811;28;20045;-29
2022/04/09 04:04:28;;;;;;;5.47;1.38;;;;;;;;;;5055052;28;20045;-29
2022/04/09 04:06:55;;;;;;;3.55;1.52;;;;;;;;;;5053982;28;20076;-30
2022/04/09 04:09:21;;;;;;;2.63;1.20;;;;;;;;;;5054351;28;20064;-29
2022/04/09 04:11:47;;;;;;;5.32;1.50;;;;;;;;;;5054309;28;20071;-28
2022/04/09 04:14:13;;;;;;;5.63;1.70;;;;;;;;;;5054852;28;20074;-29
2022/04/09 04:16:39;;;;;;;4.28;1.40;;;;;;;;;;5054768;28;20033;-29
2022/04/09 04:19:06;;;;;;;4.70;1.58;;;;;;;;;;5054668;28;20483;-29
2022/04/09 04:21:32;;;;;;;4.40;1.45;;;;;;;;;;5053478;28;20453;-30
2022/04/09 04:23:58;;;;;;;3.97;1.40;;;;;;;;;;5054821;28;20044;-29
2022/04/09 04:26:24;;;;;;;4.88;1.65;;;;;;;;;;5054553;28;20073;-29
2022/04/09 04:28:51;;;;;;;7.10;1.80;;;;;;;;;;5054673;28;20088;-29
2022/04/09 04:31:18;;;;;;;5.55;1.48;;;;;;;;;;5054604;28;20091;-29
2022/04/09 04:33:44;;;;;;;4.90;1.30;;;;;;;;;;5053507;28;20037;-29
2022/04/09 04:36:11;;;;;;;6.43;1.40;;;;;;;;;;5054701;28;20548;-29
2022/04/09 04:38:37;;;;;;;3.80;1.55;;;;;;;;;;5054549;28;20543;-29
2022/04/09 04:41:04;;;;;;;4.88;1.50;;;;;;;;;;5052316;28;20049;-29
2022/04/09 04:43:31;;;;;;;4.82;1.25;;;;;;;;;;5053215;28;20045;-29
2022/04/09 04:45:57;;;;;;;7.63;1.75;;;;;;;;;;5054624;28;20473;-29
2022/04/09 04:48:23;;;;;;;6.68;1.77;;;;;;;;;;5054314;28;20037;-30
2022/04/09 04:50:49;;;;;;;6.32;1.90;;;;;;;;;;5053803;28;20124;-29
2022/04/09 04:53:15;;;;;;;5.82;1.90;;;;;;;;;;5054275;28;20471;-29
2022/04/09 04:55:41;;;;;;;6.75;1.48;;;;;;;;;;5054275;28;20542;-30
2022/04/09 04:58:07;;;;;;;6.88;1.65;;;;;;;;;;5054300;28;20048;-29
2022/04/09 05:00:33;;;;;;;5.07;1.88;;;;;;;;;;5054160;28;20429;-30
2022/04/09 05:03:00;;;;;;;4.22;1.65;;;;;;;;;;5066391;28;20044;-30
2022/04/09 05:05:26;;;;;;;5.30;1.77;;;;;;;;;;5073951;28;20040;-33
2022/04/09 05:07:53;;;;;;;8.05;1.50;;;;;;;;;;5073721;28;20078;-30
2022/04/09 05:10:22;;;;;;;5.47;1.52;;;;;;;;;;5071970;28;20041;-34
2022/04/09 05:12:48;;;;;;;6.72;2.40;;;;;;;;;;5067521;28;20398;-30
2022/04/09 05:15:15;;;;;;;6.28;1.80;;;;;;;;;;5072172;28;20039;-30
2022/04/09 05:17:41;;;;;;;4.80;1.60;;;;;;;;;;5066659;28;20037;-31
2022/04/09 05:20:09;;;;;;;6.68;1.63;;;;;;;;;;5053079;28;20332;-31
2022/04/09 05:22:36;;;;;;;9.77;1.90;;;;;;;;;;5056380;28;20041;-30
2022/04/09 05:25:03;;;;;;;7.53;2.35;;;;;;;;;;5056248;28;20041;-30
2022/04/09 05:27:29;;;;;;;5.82;2.00;;;;;;;;;;5056305;28;20036;-32
2022/04/09 05:29:56;;;;;;;7.35;2.00;;;;;;;;;;5073100;28;20087;-29
2022/04/09 05:32:22;;;;;;;7.00;2.63;;;;;;;;;;5063613;28;20037;-29
2022/04/09 05:34:49;;;;;;;6.97;1.65;;;;;;;;;;5053078;28;20041;-30
2022/04/09 05:37:16;;;;;;;7.47;1.80;;;;;;;;;;5052405;28;20106;-29
2022/04/09 05:39:43;;;;;;;8.52;1.92;;;;;;;;;;5051864;28;20080;-30
2022/04/09 05:42:09;;;;;;;4.68;1.70;;;;;;;;;;5051378;28;20060;-28
2022/04/09 05:44:35;;;;;;;5.82;1.83;;;;;;;;;;5053083;28;20041;-29
2022/04/09 05:47:01;;;;;;;8.02;2.13;;;;;;;;;;5052489;28;20045;-30
2022/04/09 05:49:28;;;;;;;7.93;1.90;;;;;;;;;;5049981;28;20041;-29
2022/04/09 05:51:54;;;;;;;5.55;1.83;;;;;;;;;;5050886;28;20072;-29
2022/04/09 05:54:20;;;;;;;4.88;1.70;;;;;;;;;;5051784;28;20083;-29
2022/04/09 05:56:47;;;;;;;10.60;2.47;;;;;;;;;;5049791;28;20529;-30
2022/04/09 05:59:13;;;;;;;8.15;2.08;;;;;;;;;;5051444;28;20590;-30
2022/04/09 06:01:39;;;;;;;5.75;1.60;;;;;;;;;;5050990;28;20048;-29
2022/04/09 06:04:06;;;;;;;6.20;2.10;;;;;;;;;;5052178;28;20033;-29
2022/04/09 06:06:32;;;;;;;10.85;1.83;;;;;;;;;;5051199;28;20053;-29
2022/04/09 06:08:58;;;;;;;3.63;1.52;;;;;;;;;;5051579;28;20041;-30
2022/04/09 06:11:24;;;;;;;4.40;1.67;;;;;;;;;;5051522;28;20049;-30
2022/04/09 06:13:51;;;;;;;3.53;1.48;;;;;;;;;;5051519;28;20037;-29
2022/04/09 06:16:17;;;;;;;7.82;2.17;;;;;;;;;;5052459;28;20073;-29
2022/04/09 06:18:43;;;;;;;9.43;2.33;;;;;;;;;;5052849;28;20128;-30
2022/04/09 06:21:10;;;;;;;3.60;1.92;;;;;;;;;;5052583;28;20048;-29
2022/04/09 06:23:36;;;;;;;6.13;1.63;;;;;;;;;;5052290;28;20083;-27
2022/04/09 06:26:02;;;;;;;10.48;2.25;;;;;;;;;;5052110;28;20044;-29
2022/04/09 06:28:29;;;;;;;9.18;2.15;;;;;;;;;;5052180;28;20044;-29
2022/04/09 06:30:55;;;;;;;5.40;1.80;;;;;;;;;;5052078;28;20516;-28
2022/04/09 06:33:22;;;;;;;10.90;1.73;;;;;;;;;;5052225;28;20098;-28
2022/04/09 06:35:48;;;;;;;7.22;1.60;;;;;;;;;;5053068;28;20044;-29
2022/04/09 06:38:19;;;;;;;9.32;2.40;;;;;;;;;;5052930;28;20087;-28
2022/04/09 06:40:45;;;;;;;8.23;1.73;;;;;;;;;;5052456;28;20041;-30
2022/04/09 06:43:11;;;;;;;6.72;2.50;;;;;;;;;;5051845;28;20051;-28
2022/04/09 06:45:37;;;;;;;7.07;1.90;;;;;;;;;;5052008;28;20076;-29
2022/04/09 06:48:03;;;;;;;10.45;2.45;;;;;;;;;;5051682;28;20098;-30
2022/04/09 06:50:29;;;;;;;12.55;2.50;;;;;;;;;;5051327;28;20407;-29
2022/04/09 06:52:55;;;;;;;8.15;2.40;;;;;;;;;;5051400;28;20128;-30
2022/04/09 06:55:22;;;;;;;9.00;1.98;;;;;;;;;;5051274;28;20112;-29
2022/04/09 06:57:48;;;;;;;5.20;2.00;;;;;;;;;;5051231;28;20041;-29
2022/04/09 07:00:14;;;;;;;8.25;2.63;;;;;;;;;;5051421;28;20100;-28
2022/04/09 07:02:41;;;;;;;6.25;1.90;;;;;;;;;;5051343;28;20041;-30
2022/04/09 07:05:07;;;;;;;9.93;2.00;;;;;;;;;;5050728;28;20044;-29
2022/04/09 07:07:34;;;;;;;7.60;2.28;;;;;;;;;;5051405;28;20579;-29
2022/04/09 07:10:04;;;;;;;7.53;2.13;;;;;;;;;;5051286;28;20487;-29
2022/04/09 07:12:30;;;;;;;9.73;2.60;;;;;;;;;;5051392;28;20047;-29
2022/04/09 07:14:56;;;;;;;13.25;2.75;;;;;;;;;;5051366;28;20441;-30
2022/04/09 07:17:24;;;;;;;10.23;1.90;;;;;;;;;;5050913;28;20090;-29
2022/04/09 07:19:51;;;;;;;6.15;1.70;;;;;;;;;;5051378;28;20049;-29
2022/04/09 07:22:17;;;;;;;11.30;2.13;;;;;;;;;;5051138;28;20048;-30
2022/04/09 07:24:43;;;;;;;9.23;2.38;;;;;;;;;;5051207;28;20448;-29
2022/04/09 07:27:09;;;;;;;6.63;1.70;;;;;;;;;;5051002;28;20498;-30
2022/04/09 07:29:35;;;;;;;5.93;1.88;;;;;;;;;;5050991;28;20068;-29
2022/04/09 07:32:02;;;;;;;9.48;1.67;;;;;;;;;;5051066;28;20507;-30
2022/04/09 07:34:28;;;;;;;10.98;2.30;;;;;;;;;;5050763;28;20045;-29
2022/04/09 07:36:54;;;;;;;11.43;2.00;;;;;;;;;;5051298;28;20094;-29
2022/04/09 07:39:20;;;;;;;5.40;1.40;;;;;;;;;;5050957;28;20037;-29
2022/04/09 07:41:46;;;;;;;7.95;1.73;;;;;;;;;;5051069;28;20052;-29
2022/04/09 07:44:12;;;;;;;4.97;1.50;;;;;;;;;;5050906;28;20231;-29
2022/04/09 07:46:38;;;;;;;5.22;1.40;;;;;;;;;;5051115;28;20429;-30
2022/04/09 07:49:04;;;;;;;6.78;1.65;;;;;;;;;;5050988;28;20044;-30
2022/04/09 07:51:30;;;;;;;4.20;1.60;;;;;;;;;;5050978;28;20045;-29
2022/04/09 07:53:56;;;;;;;4.78;1.40;;;;;;;;;;5051132;28;20037;-30
2022/04/09 07:56:22;;;;;;;5.88;1.80;;;;;;;;;;5051578;28;20037;-30
2022/04/09 07:58:48;;;;;;;9.23;2.88;;;;;;;;;;5051264;28;20476;-31
2022/04/09 08:01:15;;;;;;;6.25;2.00;;;;;;;;;;5049407;28;20033;-30
2022/04/09 08:03:41;;;;;;;10.68;2.92;;;;;;;;;;5051056;28;20457;-29
2022/04/09 08:06:07;;;;;;;7.95;1.83;;;;;;;;;;5050829;28;20041;-30
2022/04/09 08:08:33;;;;;;;9.07;2.38;;;;;;;;;;5050731;28;20406;-29
2022/04/09 08:11:00;;;;;;;9.35;1.70;;;;;;;;;;5050636;28;20483;-29
2022/04/09 08:13:26;;;;;;;7.20;1.73;;;;;;;;;;5050945;28;20071;-29
2022/04/09 08:15:52;;;;;;;6.35;2.25;;;;;;;;;;5051218;28;20041;-29
2022/04/09 08:18:18;;;;;;;7.82;2.78;;;;;;;;;;5054154;28;20048;-30
2022/04/09 08:20:44;;;;;;;6.93;1.88;;;;;;;;;;5053761;28;20051;-30
2022/04/09 08:23:10;;;;;;;6.18;1.50;;;;;;;;;;5053977;28;20045;-30
2022/04/09 08:25:36;;;;;;;8.35;1.83;;;;;;;;;;5054213;28;20051;-29
2022/04/09 08:28:03;;;;;;;3.58;1.52;;;;;;;;;;5054268;28;20132;-30
2022/04/09 08:30:29;;;;;;;5.68;1.40;;;;;;;;;;5054556;28;20037;-29
2022/04/09 08:32:57;;;;;;;6.28;1.88;;;;;;;;;;5054907;28;20449;-30
2022/04/09 08:35:23;;;;;;;7.70;1.30;;;;;;;;;;5054881;28;20056;-30
2022/04/09 08:37:57;;;;;;;6.45;1.77;;;;;;;;;;5054570;28;20079;-29
2022/04/09 08:40:24;;;;;;;7.20;1.58;;;;;;;;;;5054097;28;20362;-30
2022/04/09 08:42:50;;;;;;;5.53;1.67;;;;;;;;;;5054410;28;20040;-30
2022/04/09 08:45:17;;;;;;;4.72;1.25;;;;;;;;;;5054197;28;20076;-30
2022/04/09 08:47:44;;;;;;;3.55;1.45;;;;;;;;;;5052353;28;20045;-29
2022/04/09 08:50:11;;;;;;;6.03;2.15;;;;;;;;;;5053816;28;20048;-31
2022/04/09 08:52:44;;;;;;;5.45;1.50;;;;;;;;;;5054228;28;20563;-30
2022/04/09 08:55:12;;;;;;;4.57;1.58;;;;;;;;;;5055081;28;20041;-30
2022/04/09 08:57:39;;;;;;;5.07;1.73;;;;;;;;;;5054906;28;20040;-29
2022/04/09 09:00:06;;;;;;;2.40;0.85;;;;;;;;;;5053877;28;20041;-30
2022/04/09 09:02:34;;;;;;;6.35;1.40;;;;;;;;;;5054406;28;20124;-30
2022/04/09 09:05:00;;;;;;;3.42;1.42;;;;;;;;;;5054015;28;20626;-29
2022/04/09 09:07:26;;;;;;;7.40;1.73;;;;;;;;;;5053626;28;20560;-29
2022/04/09 09:09:53;;;;;;;2.72;1.10;;;;;;;;;;5053764;28;20074;-30
2022/04/09 09:12:29;;;;;;;3.83;1.13;;;;;;;;;;5053606;28;20045;-30
2022/04/09 09:14:55;;;;;;;4.00;1.45;;;;;;;;;;5052180;28;20491;-29
2022/04/09 09:17:29;;;;;;;4.43;1.40;;;;;;;;;;5053742;28;20120;-30
2022/04/09 09:19:55;;;;;;;4.43;1.10;;;;;;;;;;5053102;28;20049;-30
2022/04/09 09:22:21;;;;;;;5.53;1.08;;;;;;;;;;5053293;28;20045;-29
2022/04/09 09:25:07;;;;;;;7.40;1.88;;;;;;;;;;5053308;28;20111;-31
2022/04/09 09:27:33;;;;;;;7.57;1.45;;;;;;;;;;5052794;28;20179;-30
2022/04/09 09:29:59;;;;;;;6.10;1.70;;;;;;;;;;5053607;28;20041;-30
2022/04/09 09:32:26;;;;;;;6.30;1.73;;;;;;;;;;5053499;28;20044;-29
2022/04/09 09:34:56;;;;;;;5.90;1.38;;;;;;;;;;5053558;28;20482;-31
2022/04/09 09:37:28;;;;;;;5.35;1.85;;;;;;;;;;5052390;28;20095;-30
2022/04/09 09:39:54;;;;;;;3.70;1.38;;;;;;;;;;5053176;28;20091;-30
2022/04/09 09:42:25;;;;;;;4.35;1.55;;;;;;;;;;5053338;28;20075;-30
2022/04/09 09:44:51;;;;;;;5.07;1.60;;;;;;;;;;5053240;28;20041;-30
2022/04/09 09:47:18;;;;;;;3.05;1.00;;;;;;;;;;5052805;28;20041;-30
2022/04/09 09:49:55;;;;;;;3.30;1.00;;;;;;;;;;5052752;28;20036;-30
2022/04/09 09:52:32;;;;;;;4.43;1.40;;;;;;;;;;5052367;28;20133;-30
2022/04/09 09:55:10;;;;;;;3.88;1.60;;;;;;;;;;5052807;28;20201;-29
2022/04/09 09:57:38;;;;;;;4.57;1.30;;;;;;;;;;5052938;28;20037;-31
2022/04/09 10:00:05;;;;;;;4.53;1.10;;;;;;;;;;5052655;28;20479;-30
2022/04/09 10:02:31;;;;;;;3.40;1.10;;;;;;;;;;5052647;28;20040;-32
2022/04/09 10:04:57;;;;;;;2.88;1.15;;;;;;;;;;5052881;28;20103;-28
2022/04/09 10:07:25;;;;;;;3.28;1.00;;;;;;;;;;5052649;28;20405;-30
2022/04/09 10:09:53;;;;;;;3.88;1.35;;;;;;;;;;5052668;28;20095;-30
2022/04/09 10:12:20;;;;;;;3.53;1.08;;;;;;;;;;5052222;28;20098;-30
2022/04/09 10:14:57;;;;;;;3.38;1.05;;;;;;;;;;5053653;28;20074;-30
2022/04/09 10:17:23;;;;;;;3.55;1.50;;;;;;;;;;5072255;28;20044;-30
2022/04/09 10:19:56;;;;;;;3.90;1.02;;;;;;;;;;5071136;28;20032;-30
2022/04/09 10:22:24;;;;;;;3.00;1.10;;;;;;;;;;5072293;28;20517;-30
2022/04/09 10:24:51;;;;;;;4.25;1.40;;;;;;;;;;5070747;28;20040;-30
2022/04/09 10:27:35;;;;;;;4.35;1.20;;;;;;;;;;5069599;28;20064;-30
2022/04/09 10:30:02;;;;;;;4.95;1.30;;;;;;;;;;5069289;28;20394;-30
2022/04/09 10:32:56;;;;;;;6.20;1.70;;;;;;;;;;5069014;28;20044;-31
2022/04/09 10:35:45;;;;;;;4.25;1.38;;;;;;;;;;5068029;28;20044;-29
2022/04/09 10:38:12;;;;;;;4.38;1.20;;;;;;;;;;5072482;28;20041;-29
2022/04/09 10:40:55;;;;;;;7.55;1.30;;;;;;;;;;5072673;28;20099;-29
2022/04/09 10:43:27;;;;;;;5.13;1.20;;;;;;;;;;5072560;28;20041;-29
2022/04/09 10:46:06;;;;;;;4.15;1.15;;;;;;;;;;5072095;28;20059;-29
2022/04/09 10:48:33;;;;;;;3.97;1.20;;;;;;;;;;5072561;28;20436;-29
2022/04/09 10:51:04;;;;;;;6.05;1.33;;;;;;;;;;5072393;28;20048;-30
2022/04/09 10:53:37;;;;;;;6.25;1.23;;;;;;;;;;5072063;28;20032;-30
2022/04/09 10:56:13;;;;;;;6.43;1.80;;;;;;;;;;5072220;28;20040;-30
2022/04/09 10:58:59;;;;;;;4.80;1.20;;;;;;;;;;5072271;28;20045;-29
2022/04/09 11:01:48;;;;;;;5.90;1.20;;;;;;;;;;5072186;28;20074;-30
2022/04/09 11:04:26;;;;;;;4.15;1.30;;;;;;;;;;5071097;28;20064;-29
2022/04/09 11:07:12;;;;;;;1.80;0.60;;;;;;;;;;5072411;28;20040;-29
2022/04/09 11:09:51;;;;;;;2.25;0.60;;;;;;;;;;5072238;28;20040;-29
2022/04/09 11:12:21;;;;;;;3.60;0.50;;;;;;;;;;5072005;28;20036;-29
2022/04/09 11:14:48;;;;;;;1.88;0.50;;;;;;;;;;5070629;28;20041;-29
2022/04/09 11:17:17;;;;;;;1.23;0.50;;;;;;;;;;5071968;28;20397;-29
2022/04/09 11:19:44;;;;;;;2.53;0.63;;;;;;;;;;5071697;28;20041;-28
2022/04/09 11:22:10;;;;;;;2.17;0.50;;;;;;;;;;5071896;28;20076;-28
2022/04/09 11:24:39;;;;;;;3.15;0.90;;;;;;;;;;5071817;28;20048;-29
2022/04/09 11:27:06;;;;;;;5.13;1.00;;;;;;;;;;5071543;28;20123;-29
2022/04/09 11:29:35;;;;;;;3.85;0.90;;;;;;;;;;5071718;28;20390;-30
2022/04/09 11:32:02;;;;;;;4.40;1.08;;;;;;;;;;5071433;28;20076;-29
2022/04/09 11:34:29;;;;;;;3.20;1.00;;;;;;;;;;5071688;28;20032;-30
2022/04/09 11:37:11;;;;;;;3.60;0.80;;;;;;;;;;5070225;28;20040;-30
2022/04/09 11:39:40;;;;;;;2.50;1.10;;;;;;;;;;5058187;28;20043;-32
2022/04/09 11:42:07;;;;;;;5.65;1.48;;;;;;;;;;5064801;28;20115;-31
2022/04/09 11:44:33;;;;;;;2.55;1.10;;;;;;;;;;5058350;28;20101;-33
2022/04/09 11:47:08;;;;;;;3.70;1.13;;;;;;;;;;5066501;28;20056;-29
2022/04/09 11:49:35;;;;;;;4.00;1.17;;;;;;;;;;5063081;28;20036;-29
2022/04/09 11:52:01;;;;;;;4.30;1.38;;;;;;;;;;5069207;28;20041;-30
2022/04/09 11:54:35;;;;;;;2.42;1.02;;;;;;;;;;5054339;28;20094;-29
2022/04/09 11:57:02;;;;;;;3.92;1.30;;;;;;;;;;5066486;28;20057;-30
2022/04/09 11:59:29;;;;;;;5.28;1.33;;;;;;;;;;5063310;28;20032;-30
2022/04/09 12:01:55;;;;;;;5.13;1.50;;;;;;;;;;5068594;28;20178;-29
2022/04/09 12:04:23;;;;;;;5.70;1.30;;;;;;;;;;5071346;28;20032;-28
2022/04/09 12:06:50;;;;;;;6.10;1.42;;;;;;;;;;5066709;28;20117;-28
2022/04/09 12:09:16;;;;;;;4.15;1.15;;;;;;;;;;5069417;28;20394;-29
2022/04/09 12:11:43;;;;;;;4.35;1.10;;;;;;;;;;5067109;28;20044;-30
2022/04/09 12:14:13;;;;;;;4.05;1.35;;;;;;;;;;5073627;28;20119;-29
2022/04/09 12:16:39;;;;;;;3.55;1.27;;;;;;;;;;5070252;28;20320;-29
2022/04/09 12:19:06;;;;;;;2.42;0.90;;;;;;;;;;5072449;28;20047;-29
2022/04/09 12:21:34;;;;;;;3.55;0.98;;;;;;;;;;5072609;28;20563;-27
2022/04/09 12:24:07;;;;;;;6.85;1.20;;;;;;;;;;5073347;28;20047;-33
2022/04/09 12:26:34;;;;;;;3.78;1.10;;;;;;;;;;5042371;28;20049;-30
2022/04/09 12:29:12;;;;;;;2.05;0.75;;;;;;;;;;5075792;28;20052;-30
2022/04/09 12:31:58;;;;;;;2.58;0.95;;;;;;;;;;5071695;28;20098;-33
2022/04/09 12:34:24;;;;;;;3.10;1.00;;;;;;;;;;5074739;28;20039;-29
2022/04/09 12:37:05;;;;;;;3.88;0.82;;;;;;;;;;5075273;28;20040;-28
2022/04/09 12:39:36;;;;;;;4.00;0.98;;;;;;;;;;5074320;28;20040;-30
2022/04/09 12:42:02;;;;;;;5.47;1.15;;;;;;;;;;5073581;28;20044;-30
2022/04/09 12:44:29;;;;;;;2.75;1.10;;;;;;;;;;5075082;28;20478;-31
2022/04/09 12:46:56;;;;;;;2.22;0.90;;;;;;;;;;5074999;28;20461;-30
2022/04/09 12:49:32;;;;;;;3.58;1.35;;;;;;;;;;5074710;28;20087;-30
2022/04/09 12:51:58;;;;;;;3.92;1.10;;;;;;;;;;5074865;28;20051;-30
2022/04/09 12:54:24;;;;;;;3.72;1.20;;;;;;;;;;5074738;28;20039;-30
2022/04/09 12:56:51;;;;;;;3.22;1.00;;;;;;;;;;5075125;28;20045;-29
2022/04/09 12:59:17;;;;;;;3.33;0.95;;;;;;;;;;5075178;28;20036;-29
2022/04/09 13:01:44;;;;;;;2.50;1.00;;;;;;;;;;5073126;28;20121;-30
2022/04/09 13:04:10;;;;;;;3.10;0.75;;;;;;;;;;5073146;28;20067;-28
2022/04/09 13:06:38;;;;;;;5.03;1.55;;;;;;;;;;5075292;28;20124;-33
2022/04/09 13:09:05;;;;;;;3.53;1.42;;;;;;;;;;5073324;28;20039;-30
2022/04/09 13:11:32;;;;;;;2.70;1.00;;;;;;;;;;5072956;28;20055;-29
2022/04/09 13:13:58;;;;;;;3.13;0.98;;;;;;;;;;5074020;28;20406;-29
2022/04/09 13:16:24;;;;;;;3.28;1.10;;;;;;;;;;5074485;28;20116;-30
2022/04/09 13:18:50;;;;;;;4.05;1.25;;;;;;;;;;5074782;28;20036;-29
2022/04/09 13:21:19;;;;;;;1.58;0.90;;;;;;;;;;5074043;28;20079;-30
2022/04/09 13:23:45;;;;;;;1.88;0.75;;;;;;;;;;5074288;28;20486;-29
2022/04/09 13:26:11;;;;;;;5.28;1.15;;;;;;;;;;5073782;28;20467;-30
2022/04/09 13:28:37;;;;;;;1.92;0.90;;;;;;;;;;5074276;28;20406;-30
2022/04/09 13:31:04;;;;;;;2.20;0.93;;;;;;;;;;5073971;28;20051;-29
2022/04/09 13:33:36;;;;;;;2.97;0.95;;;;;;;;;;5074432;28;20036;-30
2022/04/09 13:36:02;;;;;;;3.08;1.00;;;;;;;;;;5073674;28;20037;-30
2022/04/09 13:38:28;;;;;;;1.52;0.82;;;;;;;;;;5073755;28;20032;-31
2022/04/09 13:40:54;;;;;;;2.15;0.68;;;;;;;;;;5074104;28;20044;-30
2022/04/09 13:43:20;;;;;;;2.60;0.80;;;;;;;;;;5074516;28;20051;-32
2022/04/09 13:45:47;;;;;;;3.03;0.90;;;;;;;;;;5073989;28;20050;-29
2022/04/09 13:48:13;;;;;;;3.38;1.23;;;;;;;;;;5073978;28;20482;-29
2022/04/09 13:50:39;;;;;;;4.30;1.00;;;;;;;;;;5073668;28;20048;-30
2022/04/09 13:53:06;;;;;;;3.75;1.13;;;;;;;;;;5074127;28;20037;-31
2022/04/09 13:55:33;;;;;;;4.70;1.65;;;;;;;;;;5073572;28;20040;-29
2022/04/09 13:57:59;;;;;;;3.53;1.23;;;;;;;;;;5073435;28;20044;-29
2022/04/09 14:00:25;;;;;;;5.10;1.48;;;;;;;;;;5072597;28;20036;-29
2022/04/09 14:02:51;;;;;;;3.88;1.40;;;;;;;;;;5073363;28;20489;-29
2022/04/09 14:05:19;;;;;;;3.47;1.20;;;;;;;;;;5074000;28;20231;-29
2022/04/09 14:07:45;;;;;;;3.78;1.23;;;;;;;;;;5072698;28;20048;-30
2022/04/09 14:10:11;;;;;;;6.05;1.08;;;;;;;;;;5071520;28;20082;-29
2022/04/09 14:12:37;;;;;;;1.90;0.88;;;;;;;;;;5071570;28;20059;-29
2022/04/09 14:15:04;;;;;;;6.50;0.98;;;;;;;;;;5071342;28;20037;-30
2022/04/09 14:17:30;;;;;;;1.90;0.77;;;;;;;;;;5071441;28;20085;-29
2022/04/09 14:19:56;;;;;;;1.85;0.70;;;;;;;;;;5072016;28;20040;-29
2022/04/09 14:22:23;;;;;;;1.92;0.80;;;;;;;;;;5072471;28;20044;-28
2022/04/09 14:24:49;;;;;;;4.72;2.15;;;;;;;;;;5070989;28;20383;-30
2022/04/09 14:27:15;;;;;;;3.55;1.02;;;;;;;;;;5071221;28;20032;-30
2022/04/09 14:29:41;;;;;;;3.33;1.10;;;;;;;;;;5072503;28;20542;-30
2022/04/09 14:32:08;;;;;;;1.27;0.80;;;;;;;;;;5070128;28;20063;-29
2022/04/09 14:34:34;;;;;;;1.20;0.60;;;;;;;;;;5070377;28;20523;-30
2022/04/09 14:37:00;;;;;;;2.72;0.90;;;;;;;;;;5071657;28;20453;-30
2022/04/09 14:39:26;;;;;;;2.88;0.70;;;;;;;;;;5072067;28;20044;-30
2022/04/09 14:41:53;;;;;;;3.67;1.10;;;;;;;;;;5070809;28;20090;-29